»·PEaware :: UAL1490 KIAH-KDFW

UAL1490 :: KIAH-KDFW

FLIGHT INFORMATION

Flight Status: Arrived
Operator:
United Airlines
More flights by this operator :: More flights under this callsign
Pilot: Ben L. (6391)
Aircraft: AIRBUS A320
(A320)
More flights by this aircraft type
Origin: KIAH G Bush Intercontinental/Houst
United States
Destination: KDFW Dallas-Ft Worth Intl
United States
More flights between these airports :: More routes between these airports
Route: BLTWY1 CRIED WHINY2
File this flight plan on PilotEdge
Remarks:
Altitude:
(Current/Filed)
28,000ft
Speed:
(Current/Filed)
450kts
Departed: 23-Oct-15 12:40 PM
Arrived: 23-Oct-15 01:26 PM
Distance/Time
Traveled:
195nm/0:46
Distance/Time
To Go:
Arrived

Flight Plot

Page will automatically refresh every two minutes.


Map Options




Map Legend


Flown Route
Filed Route
Departure Airport
Arrival Airport
Navaid (VOR, NDB)
Fix

Horizontal Profiles

Position Reports

Time Latitude Longitude Heading Altitude Ground
Speed
23-Oct-15 12:19 29.988273 -95.331855 0 105ft 0kts
23-Oct-15 12:20 29.988273 -95.331855 180 105ft 0kts
23-Oct-15 12:21 29.988273 -95.331855 180 105ft 0kts
23-Oct-15 12:22 29.988273 -95.331855 180 105ft 0kts
23-Oct-15 12:23 29.988273 -95.331855 180 105ft 0kts
23-Oct-15 12:24 29.988273 -95.331855 180 105ft 0kts
23-Oct-15 12:25 29.988273 -95.331855 180 105ft 0kts
23-Oct-15 12:26 29.988273 -95.331855 180 105ft 0kts
23-Oct-15 12:27 29.988305 -95.331855 180 105ft 0kts
23-Oct-15 12:28 29.989070 -95.331561 279 105ft 0kts
23-Oct-15 12:29 29.989070 -95.331561 279 105ft 0kts
23-Oct-15 12:30 29.989070 -95.331561 279 105ft 0kts
23-Oct-15 12:31 29.989070 -95.331561 279 105ft 0kts
23-Oct-15 12:32 29.989193 -95.335297 269 105ft 19kts
23-Oct-15 12:33 29.990780 -95.338987 269 105ft 16kts
23-Oct-15 12:34 29.990777 -95.345518 269 105ft 26kts
23-Oct-15 12:35 29.990761 -95.353299 269 105ft 19kts
23-Oct-15 12:36 29.990655 -95.359852 241 105ft 21kts
23-Oct-15 12:37 29.987510 -95.358396 65 106ft 7kts
23-Oct-15 12:38 29.987167 -95.357403 151 105ft 7kts
23-Oct-15 12:39 29.956449 -95.338930 154 1225ft 183kts
23-Oct-15 12:40 29.946807 -95.295380 23 3591ft 219kts
23-Oct-15 12:41 30.006842 -95.311563 341 5520ft 244kts
23-Oct-15 12:42 30.079523 -95.338156 341 7123ft 305kts
23-Oct-15 12:43 30.159833 -95.367303 342 10004ft 317kts
23-Oct-15 12:44 30.255083 -95.401860 342 10788ft 403kts
23-Oct-15 12:45 30.347654 -95.402732 16 13055ft 401kts
23-Oct-15 12:46 30.449835 -95.448107 327 15243ft 424kts
23-Oct-15 12:47 30.565147 -95.481788 345 17699ft 441kts
23-Oct-15 12:48 30.683883 -95.508768 344 19587ft 452kts
23-Oct-15 12:49 30.808443 -95.536995 344 21228ft 463kts
23-Oct-15 12:50 30.936104 -95.565994 343 22855ft 473kts
23-Oct-15 12:51 31.066240 -95.595633 343 24475ft 483kts
23-Oct-15 12:52 31.199367 -95.626040 343 26041ft 493kts
23-Oct-15 12:53 31.328519 -95.655607 343 27613ft 495kts
23-Oct-15 12:54 31.444329 -95.723992 317 27995ft 470kts
23-Oct-15 12:55 31.545532 -95.801100 321 27982ft 461kts
23-Oct-15 12:56 31.645266 -95.875080 320 26957ft 413kts
23-Oct-15 12:57 31.738937 -95.941598 322 24845ft 402kts
23-Oct-15 12:58 31.833523 -96.005216 322 23979ft 421kts
23-Oct-15 12:59 31.932434 -96.075988 320 23935ft 407kts
23-Oct-15 13:00 32.019739 -96.138850 320 22744ft 372kts
23-Oct-15 13:01 32.105400 -96.200812 320 20561ft 356kts
23-Oct-15 13:02 32.187724 -96.260548 322 17995ft 341kts
23-Oct-15 13:03 32.266724 -96.317746 328 14742ft 336kts
23-Oct-15 13:04 32.320106 -96.382642 327 12730ft 283kts
23-Oct-15 13:05 32.385994 -96.446245 315 11886ft 287kts
23-Oct-15 13:06 32.418393 -96.512331 295 9627ft 285kts
23-Oct-15 13:07 32.454663 -96.592021 295 7778ft 258kts
23-Oct-15 13:08 32.489565 -96.667948 296 6042ft 295kts
23-Oct-15 13:09 32.499206 -96.773806 270 6011ft 312kts
23-Oct-15 13:10 32.516397 -96.854255 332 6024ft 235kts
23-Oct-15 13:11 32.573011 -96.868250 348 5074ft 216kts
23-Oct-15 13:12 32.629749 -96.884409 347 4001ft 209kts
23-Oct-15 13:13 32.644591 -96.888796 347 3999ft 210kts
23-Oct-15 13:14 32.695521 -96.904072 347 3919ft 197kts
23-Oct-15 13:15 32.752803 -96.921396 347 3015ft 228kts
23-Oct-15 13:16 32.813786 -96.939905 347 3000ft 228kts
23-Oct-15 13:17 32.875033 -96.958528 347 2966ft 229kts
23-Oct-15 13:18 32.936618 -96.977281 347 2980ft 230kts
23-Oct-15 13:19 32.998223 -96.996063 348 3019ft 229kts
23-Oct-15 13:20 33.051483 -97.015474 316 3008ft 190kts
23-Oct-15 13:21 33.032010 -97.047609 141 3025ft 173kts
23-Oct-15 13:22 32.995588 -97.014974 141 2590ft 146kts
23-Oct-15 13:23 32.956105 -97.009257 177 1771ft 148kts
23-Oct-15 13:24 32.916674 -97.009735 176 1011ft 146kts
23-Oct-15 13:25 32.885959 -97.010312 207 614ft 28kts
23-Oct-15 13:26 32.882625 -97.011642 179 614ft 28kts
23-Oct-15 13:27 32.878558 -97.017174 268 614ft 35kts
23-Oct-15 13:28 32.879063 -97.029232 270 614ft 33kts
23-Oct-15 13:29 32.882676 -97.034437 359 614ft 20kts
23-Oct-15 13:30 32.890340 -97.034926 280 614ft 3kts
23-Oct-15 13:31 32.890352 -97.035132 272 614ft 0kts

Navigation Log

Ident Type
1. KIAH Airport
2. CRIED Fix
3. KDFW Airport